sensor_id;sensor_type;location;lat;lon;timestamp;P1;durP1;ratioP1;P2;durP2;ratioP2
9563;SDS011;4820;50.870;4.702;2023-03-23T00:01:00;4.35;;;2.83;;
9563;SDS011;4820;50.870;4.702;2023-03-23T00:03:27;3.13;;;2.80;;
9563;SDS011;4820;50.870;4.702;2023-03-23T00:05:54;3.97;;;3.05;;
9563;SDS011;4820;50.870;4.702;2023-03-23T00:08:24;3.78;;;2.78;;
9563;SDS011;4820;50.870;4.702;2023-03-23T00:10:51;4.38;;;3.00;;
9563;SDS011;4820;50.870;4.702;2023-03-23T00:13:21;4.63;;;3.28;;
9563;SDS011;4820;50.870;4.702;2023-03-23T00:15:48;4.15;;;3.55;;
9563;SDS011;4820;50.870;4.702;2023-03-23T00:18:19;3.47;;;3.05;;
9563;SDS011;4820;50.870;4.702;2023-03-23T00:20:56;4.15;;;3.10;;
9563;SDS011;4820;50.870;4.702;2023-03-23T00:23:26;3.63;;;3.20;;
9563;SDS011;4820;50.870;4.702;2023-03-23T00:25:54;4.10;;;3.05;;
9563;SDS011;4820;50.870;4.702;2023-03-23T00:28:22;5.85;;;3.20;;
9563;SDS011;4820;50.870;4.702;2023-03-23T00:31:10;4.15;;;2.95;;
9563;SDS011;4820;50.870;4.702;2023-03-23T00:33:37;4.20;;;3.33;;
9563;SDS011;4820;50.870;4.702;2023-03-23T00:36:05;3.25;;;2.92;;
9563;SDS011;4820;50.870;4.702;2023-03-23T00:38:35;5.15;;;3.42;;
9563;SDS011;4820;50.870;4.702;2023-03-23T00:41:05;3.38;;;3.00;;
9563;SDS011;4820;50.870;4.702;2023-03-23T00:43:31;3.30;;;3.00;;
9563;SDS011;4820;50.870;4.702;2023-03-23T00:46:01;3.72;;;3.40;;
9563;SDS011;4820;50.870;4.702;2023-03-23T00:48:28;5.93;;;3.40;;
9563;SDS011;4820;50.870;4.702;2023-03-23T00:50:55;4.05;;;3.10;;
9563;SDS011;4820;50.870;4.702;2023-03-23T00:53:21;3.20;;;2.88;;
9563;SDS011;4820;50.870;4.702;2023-03-23T00:55:47;3.17;;;2.88;;
9563;SDS011;4820;50.870;4.702;2023-03-23T00:58:14;3.35;;;3.00;;
9563;SDS011;4820;50.870;4.702;2023-03-23T01:00:40;3.45;;;2.97;;
9563;SDS011;4820;50.870;4.702;2023-03-23T01:03:07;3.97;;;2.80;;
9563;SDS011;4820;50.870;4.702;2023-03-23T01:05:37;3.63;;;2.80;;
9563;SDS011;4820;50.870;4.702;2023-03-23T01:08:04;4.03;;;2.83;;
9563;SDS011;4820;50.870;4.702;2023-03-23T01:10:32;4.38;;;3.28;;
9563;SDS011;4820;50.870;4.702;2023-03-23T01:13:01;4.20;;;3.22;;
9563;SDS011;4820;50.870;4.702;2023-03-23T01:15:28;3.67;;;3.20;;
9563;SDS011;4820;50.870;4.702;2023-03-23T01:17:55;3.67;;;2.80;;
9563;SDS011;4820;50.870;4.702;2023-03-23T01:20:21;3.28;;;2.97;;
9563;SDS011;4820;50.870;4.702;2023-03-23T01:22:47;5.60;;;3.00;;
9563;SDS011;4820;50.870;4.702;2023-03-23T01:25:13;3.17;;;2.83;;
9563;SDS011;4820;50.870;4.702;2023-03-23T01:27:39;3.63;;;3.13;;
9563;SDS011;4820;50.870;4.702;2023-03-23T01:30:06;3.65;;;3.03;;
9563;SDS011;4820;50.870;4.702;2023-03-23T01:32:33;3.95;;;2.78;;
9563;SDS011;4820;50.870;4.702;2023-03-23T01:35:01;3.50;;;3.05;;
9563;SDS011;4820;50.870;4.702;2023-03-23T01:37:26;3.22;;;2.80;;
9563;SDS011;4820;50.870;4.702;2023-03-23T01:39:53;3.95;;;2.67;;
9563;SDS011;4820;50.870;4.702;2023-03-23T01:42:23;3.60;;;3.22;;
9563;SDS011;4820;50.870;4.702;2023-03-23T01:47:17;3.13;;;2.83;;
9563;SDS011;4820;50.870;4.702;2023-03-23T01:49:48;3.45;;;2.97;;
9563;SDS011;4820;50.870;4.702;2023-03-23T01:52:17;4.57;;;2.88;;
9563;SDS011;4820;50.870;4.702;2023-03-23T01:54:48;3.10;;;2.80;;
9563;SDS011;4820;50.870;4.702;2023-03-23T01:57:16;4.50;;;2.88;;
9563;SDS011;4820;50.870;4.702;2023-03-23T01:59:47;3.20;;;2.90;;
9563;SDS011;4820;50.870;4.702;2023-03-23T02:02:20;3.97;;;3.10;;
9563;SDS011;4820;50.870;4.702;2023-03-23T02:04:49;3.42;;;2.92;;
9563;SDS011;4820;50.870;4.702;2023-03-23T02:07:17;3.53;;;2.80;;
9563;SDS011;4820;50.870;4.702;2023-03-23T02:09:45;3.53;;;2.88;;
9563;SDS011;4820;50.870;4.702;2023-03-23T02:12:10;4.55;;;2.83;;
9563;SDS011;4820;50.870;4.702;2023-03-23T02:14:37;3.80;;;2.88;;
9563;SDS011;4820;50.870;4.702;2023-03-23T02:35:58;3.40;;;2.70;;
9563;SDS011;4820;50.870;4.702;2023-03-23T02:38:27;6.18;;;2.97;;
9563;SDS011;4820;50.870;4.702;2023-03-23T02:40:59;3.35;;;2.60;;
9563;SDS011;4820;50.870;4.702;2023-03-23T02:43:27;6.22;;;3.08;;
9563;SDS011;4820;50.870;4.702;2023-03-23T02:45:58;4.90;;;2.60;;
9563;SDS011;4820;50.870;4.702;2023-03-23T02:48:28;4.35;;;2.70;;
9563;SDS011;4820;50.870;4.702;2023-03-23T02:50:57;4.32;;;3.10;;
9563;SDS011;4820;50.870;4.702;2023-03-23T02:53:25;3.30;;;2.15;;
9563;SDS011;4820;50.870;4.702;2023-03-23T02:55:53;3.63;;;2.38;;
9563;SDS011;4820;50.870;4.702;2023-03-23T02:58:21;3.30;;;2.65;;
9563;SDS011;4820;50.870;4.702;2023-03-23T03:00:51;5.40;;;2.50;;
9563;SDS011;4820;50.870;4.702;2023-03-23T03:03:23;4.15;;;2.47;;
9563;SDS011;4820;50.870;4.702;2023-03-23T03:05:57;3.45;;;2.42;;
9563;SDS011;4820;50.870;4.702;2023-03-23T03:11:11;4.00;;;2.40;;
9563;SDS011;4820;50.870;4.702;2023-03-23T03:13:43;3.92;;;2.60;;
9563;SDS011;4820;50.870;4.702;2023-03-23T03:16:49;2.60;;;2.40;;
9563;SDS011;4820;50.870;4.702;2023-03-23T03:19:23;3.15;;;2.40;;
9563;SDS011;4820;50.870;4.702;2023-03-23T03:21:54;3.53;;;2.47;;
9563;SDS011;4820;50.870;4.702;2023-03-23T03:24:23;4.00;;;2.40;;
9563;SDS011;4820;50.870;4.702;2023-03-23T03:26:51;5.38;;;2.42;;
9563;SDS011;4820;50.870;4.702;2023-03-23T03:29:44;3.10;;;2.25;;
9563;SDS011;4820;50.870;4.702;2023-03-23T03:32:14;2.92;;;2.55;;
9563;SDS011;4820;50.870;4.702;2023-03-23T03:34:43;3.17;;;2.40;;
9563;SDS011;4820;50.870;4.702;2023-03-23T03:37:09;3.42;;;2.58;;
9563;SDS011;4820;50.870;4.702;2023-03-23T03:39:37;3.92;;;2.22;;
9563;SDS011;4820;50.870;4.702;2023-03-23T03:42:03;3.83;;;2.20;;
9563;SDS011;4820;50.870;4.702;2023-03-23T03:44:30;2.78;;;2.30;;
9563;SDS011;4820;50.870;4.702;2023-03-23T03:46:56;4.22;;;2.33;;
9563;SDS011;4820;50.870;4.702;2023-03-23T03:49:24;3.53;;;2.30;;
9563;SDS011;4820;50.870;4.702;2023-03-23T03:51:51;3.50;;;2.50;;
9563;SDS011;4820;50.870;4.702;2023-03-23T03:54:19;4.55;;;2.40;;
9563;SDS011;4820;50.870;4.702;2023-03-23T03:56:45;3.47;;;2.50;;
9563;SDS011;4820;50.870;4.702;2023-03-23T03:59:11;3.35;;;2.13;;
9563;SDS011;4820;50.870;4.702;2023-03-23T04:01:38;4.75;;;2.30;;
9563;SDS011;4820;50.870;4.702;2023-03-23T04:04:04;4.53;;;2.28;;
9563;SDS011;4820;50.870;4.702;2023-03-23T04:06:32;3.22;;;2.10;;
9563;SDS011;4820;50.870;4.702;2023-03-23T04:09:02;3.22;;;2.20;;
9563;SDS011;4820;50.870;4.702;2023-03-23T04:11:31;3.50;;;2.30;;
9563;SDS011;4820;50.870;4.702;2023-03-23T04:13:58;4.28;;;2.25;;
9563;SDS011;4820;50.870;4.702;2023-03-23T04:16:25;3.05;;;2.05;;
9563;SDS011;4820;50.870;4.702;2023-03-23T04:18:54;5.43;;;2.38;;
9563;SDS011;4820;50.870;4.702;2023-03-23T04:21:21;3.28;;;2.30;;
9563;SDS011;4820;50.870;4.702;2023-03-23T04:23:47;3.88;;;2.40;;
9563;SDS011;4820;50.870;4.702;2023-03-23T04:28:43;3.13;;;2.00;;
9563;SDS011;4820;50.870;4.702;2023-03-23T04:31:09;3.20;;;2.00;;
9563;SDS011;4820;50.870;4.702;2023-03-23T04:33:37;5.07;;;2.33;;
9563;SDS011;4820;50.870;4.702;2023-03-23T04:36:05;4.85;;;2.17;;
9563;SDS011;4820;50.870;4.702;2023-03-23T04:38:31;5.18;;;2.50;;
9563;SDS011;4820;50.870;4.702;2023-03-23T04:40:59;4.95;;;2.15;;
9563;SDS011;4820;50.870;4.702;2023-03-23T04:43:27;4.97;;;2.03;;
9563;SDS011;4820;50.870;4.702;2023-03-23T04:45:57;3.55;;;2.05;;
9563;SDS011;4820;50.870;4.702;2023-03-23T04:48:26;7.63;;;2.20;;
9563;SDS011;4820;50.870;4.702;2023-03-23T04:50:55;6.75;;;2.25;;
9563;SDS011;4820;50.870;4.702;2023-03-23T04:53:21;5.35;;;2.15;;
9563;SDS011;4820;50.870;4.702;2023-03-23T04:55:48;4.80;;;2.35;;
9563;SDS011;4820;50.870;4.702;2023-03-23T04:58:14;8.23;;;2.20;;
9563;SDS011;4820;50.870;4.702;2023-03-23T05:00:41;3.08;;;1.60;;
9563;SDS011;4820;50.870;4.702;2023-03-23T05:03:17;4.35;;;2.20;;
9563;SDS011;4820;50.870;4.702;2023-03-23T05:05:43;5.88;;;2.03;;
9563;SDS011;4820;50.870;4.702;2023-03-23T05:08:12;4.25;;;2.10;;
9563;SDS011;4820;50.870;4.702;2023-03-23T05:10:38;4.38;;;1.80;;
9563;SDS011;4820;50.870;4.702;2023-03-23T05:13:05;5.75;;;2.03;;
9563;SDS011;4820;50.870;4.702;2023-03-23T05:18:00;3.10;;;1.73;;
9563;SDS011;4820;50.870;4.702;2023-03-23T05:20:27;3.10;;;1.75;;
9563;SDS011;4820;50.870;4.702;2023-03-23T05:22:55;3.17;;;1.77;;
9563;SDS011;4820;50.870;4.702;2023-03-23T05:25:21;2.35;;;1.58;;
9563;SDS011;4820;50.870;4.702;2023-03-23T05:27:47;2.83;;;1.55;;
9563;SDS011;4820;50.870;4.702;2023-03-23T05:30:18;4.80;;;1.80;;
9563;SDS011;4820;50.870;4.702;2023-03-23T05:32:44;3.30;;;1.60;;
9563;SDS011;4820;50.870;4.702;2023-03-23T05:35:17;5.03;;;1.75;;
9563;SDS011;4820;50.870;4.702;2023-03-23T05:37:43;3.70;;;1.80;;
9563;SDS011;4820;50.870;4.702;2023-03-23T05:40:11;4.65;;;1.60;;
9563;SDS011;4820;50.870;4.702;2023-03-23T05:42:37;4.75;;;1.70;;
9563;SDS011;4820;50.870;4.702;2023-03-23T05:45:06;3.28;;;1.90;;
9563;SDS011;4820;50.870;4.702;2023-03-23T05:47:34;2.53;;;1.65;;
9563;SDS011;4820;50.870;4.702;2023-03-23T05:50:00;4.25;;;1.80;;
9563;SDS011;4820;50.870;4.702;2023-03-23T05:52:27;3.65;;;1.85;;
9563;SDS011;4820;50.870;4.702;2023-03-23T05:54:53;4.07;;;1.58;;
9563;SDS011;4820;50.870;4.702;2023-03-23T05:57:19;3.30;;;1.80;;
9563;SDS011;4820;50.870;4.702;2023-03-23T05:59:47;3.63;;;1.77;;
9563;SDS011;4820;50.870;4.702;2023-03-23T06:02:12;2.85;;;1.65;;
9563;SDS011;4820;50.870;4.702;2023-03-23T06:04:39;2.72;;;1.70;;
9563;SDS011;4820;50.870;4.702;2023-03-23T06:07:06;2.35;;;1.50;;
9563;SDS011;4820;50.870;4.702;2023-03-23T06:09:37;3.65;;;1.58;;
9563;SDS011;4820;50.870;4.702;2023-03-23T06:12:03;3.90;;;2.00;;
9563;SDS011;4820;50.870;4.702;2023-03-23T06:14:29;5.35;;;2.17;;
9563;SDS011;4820;50.870;4.702;2023-03-23T06:16:56;5.03;;;2.22;;
9563;SDS011;4820;50.870;4.702;2023-03-23T06:19:22;5.78;;;1.80;;
9563;SDS011;4820;50.870;4.702;2023-03-23T06:21:48;4.43;;;1.67;;
9563;SDS011;4820;50.870;4.702;2023-03-23T06:24:14;5.82;;;2.03;;
9563;SDS011;4820;50.870;4.702;2023-03-23T06:26:40;3.28;;;1.83;;
9563;SDS011;4820;50.870;4.702;2023-03-23T06:29:07;5.53;;;2.05;;
9563;SDS011;4820;50.870;4.702;2023-03-23T06:31:40;4.18;;;1.80;;
9563;SDS011;4820;50.870;4.702;2023-03-23T06:34:10;5.78;;;1.77;;
9563;SDS011;4820;50.870;4.702;2023-03-23T06:36:36;3.40;;;1.85;;
9563;SDS011;4820;50.870;4.702;2023-03-23T06:39:03;3.83;;;2.03;;
9563;SDS011;4820;50.870;4.702;2023-03-23T06:41:30;4.55;;;2.05;;
9563;SDS011;4820;50.870;4.702;2023-03-23T06:43:57;5.72;;;2.40;;
9563;SDS011;4820;50.870;4.702;2023-03-23T06:46:24;3.70;;;1.80;;
9563;SDS011;4820;50.870;4.702;2023-03-23T06:48:50;4.63;;;1.92;;
9563;SDS011;4820;50.870;4.702;2023-03-23T06:51:17;4.22;;;1.83;;
9563;SDS011;4820;50.870;4.702;2023-03-23T06:53:43;6.20;;;2.20;;
9563;SDS011;4820;50.870;4.702;2023-03-23T06:56:09;6.05;;;1.70;;
9563;SDS011;4820;50.870;4.702;2023-03-23T06:58:36;5.10;;;2.03;;
9563;SDS011;4820;50.870;4.702;2023-03-23T07:01:03;5.95;;;2.28;;
9563;SDS011;4820;50.870;4.702;2023-03-23T07:03:29;5.25;;;1.98;;
9563;SDS011;4820;50.870;4.702;2023-03-23T07:05:57;6.68;;;2.05;;
9563;SDS011;4820;50.870;4.702;2023-03-23T07:08:25;5.90;;;2.15;;
9563;SDS011;4820;50.870;4.702;2023-03-23T07:10:52;6.22;;;2.08;;
9563;SDS011;4820;50.870;4.702;2023-03-23T07:13:19;4.38;;;2.20;;
9563;SDS011;4820;50.870;4.702;2023-03-23T07:15:45;5.93;;;1.90;;
9563;SDS011;4820;50.870;4.702;2023-03-23T07:18:13;2.80;;;1.65;;
9563;SDS011;4820;50.870;4.702;2023-03-23T07:20:39;5.38;;;2.08;;
9563;SDS011;4820;50.870;4.702;2023-03-23T07:23:05;4.40;;;1.92;;
9563;SDS011;4820;50.870;4.702;2023-03-23T07:25:32;5.43;;;2.25;;
9563;SDS011;4820;50.870;4.702;2023-03-23T07:27:59;7.65;;;2.30;;
9563;SDS011;4820;50.870;4.702;2023-03-23T07:30:26;2.97;;;1.80;;
9563;SDS011;4820;50.870;4.702;2023-03-23T07:32:54;4.88;;;2.05;;
9563;SDS011;4820;50.870;4.702;2023-03-23T07:35:20;3.75;;;1.98;;
9563;SDS011;4820;50.870;4.702;2023-03-23T07:37:47;2.90;;;1.98;;
9563;SDS011;4820;50.870;4.702;2023-03-23T07:40:14;5.90;;;1.90;;
9563;SDS011;4820;50.870;4.702;2023-03-23T07:42:51;4.30;;;1.77;;
9563;SDS011;4820;50.870;4.702;2023-03-23T07:45:19;2.13;;;1.00;;
9563;SDS011;4820;50.870;4.702;2023-03-23T07:47:44;1.95;;;1.20;;
9563;SDS011;4820;50.870;4.702;2023-03-23T07:50:10;2.63;;;1.20;;
9563;SDS011;4820;50.870;4.702;2023-03-23T07:52:37;2.53;;;1.10;;
9563;SDS011;4820;50.870;4.702;2023-03-23T07:55:03;2.40;;;1.30;;
9563;SDS011;4820;50.870;4.702;2023-03-23T07:57:37;1.95;;;1.23;;
9563;SDS011;4820;50.870;4.702;2023-03-23T08:00:09;2.10;;;1.20;;
9563;SDS011;4820;50.870;4.702;2023-03-23T08:02:48;3.83;;;1.60;;
9563;SDS011;4820;50.870;4.702;2023-03-23T08:05:16;3.30;;;1.60;;
9563;SDS011;4820;50.870;4.702;2023-03-23T08:07:43;3.17;;;1.88;;
9563;SDS011;4820;50.870;4.702;2023-03-23T08:10:10;3.20;;;1.50;;
9563;SDS011;4820;50.870;4.702;2023-03-23T08:12:42;2.60;;;1.52;;
9563;SDS011;4820;50.870;4.702;2023-03-23T08:15:10;2.38;;;1.63;;
9563;SDS011;4820;50.870;4.702;2023-03-23T08:17:39;3.85;;;1.70;;
9563;SDS011;4820;50.870;4.702;2023-03-23T08:20:08;2.63;;;1.60;;
9563;SDS011;4820;50.870;4.702;2023-03-23T08:22:40;2.33;;;1.80;;
9563;SDS011;4820;50.870;4.702;2023-03-23T08:25:09;3.53;;;1.92;;
9563;SDS011;4820;50.870;4.702;2023-03-23T08:27:35;4.60;;;1.70;;
9563;SDS011;4820;50.870;4.702;2023-03-23T08:30:02;3.42;;;1.70;;
9563;SDS011;4820;50.870;4.702;2023-03-23T08:32:30;2.92;;;1.88;;
9563;SDS011;4820;50.870;4.702;2023-03-23T08:34:56;4.22;;;1.40;;
9563;SDS011;4820;50.870;4.702;2023-03-23T08:37:24;3.08;;;1.52;;
9563;SDS011;4820;50.870;4.702;2023-03-23T08:39:53;4.22;;;1.20;;
9563;SDS011;4820;50.870;4.702;2023-03-23T08:42:25;2.85;;;1.25;;
9563;SDS011;4820;50.870;4.702;2023-03-23T08:44:51;2.60;;;1.15;;
9563;SDS011;4820;50.870;4.702;2023-03-23T08:47:18;2.03;;;1.23;;
9563;SDS011;4820;50.870;4.702;2023-03-23T08:49:47;2.72;;;1.13;;
9563;SDS011;4820;50.870;4.702;2023-03-23T08:52:17;3.97;;;1.38;;
9563;SDS011;4820;50.870;4.702;2023-03-23T08:54:44;2.70;;;1.30;;
9563;SDS011;4820;50.870;4.702;2023-03-23T08:57:12;4.70;;;1.30;;
9563;SDS011;4820;50.870;4.702;2023-03-23T08:59:40;3.22;;;1.15;;
9563;SDS011;4820;50.870;4.702;2023-03-23T09:02:08;4.15;;;1.70;;
9563;SDS011;4820;50.870;4.702;2023-03-23T09:04:35;2.38;;;1.25;;
9563;SDS011;4820;50.870;4.702;2023-03-23T09:07:01;2.58;;;1.30;;
9563;SDS011;4820;50.870;4.702;2023-03-23T09:09:28;7.45;;;1.80;;
9563;SDS011;4820;50.870;4.702;2023-03-23T09:11:54;3.42;;;1.58;;
9563;SDS011;4820;50.870;4.702;2023-03-23T09:14:20;3.25;;;1.20;;
9563;SDS011;4820;50.870;4.702;2023-03-23T09:16:46;2.08;;;1.23;;
9563;SDS011;4820;50.870;4.702;2023-03-23T09:19:12;3.42;;;1.30;;
9563;SDS011;4820;50.870;4.702;2023-03-23T09:21:38;3.78;;;1.52;;
9563;SDS011;4820;50.870;4.702;2023-03-23T09:24:04;1.67;;;1.10;;
9563;SDS011;4820;50.870;4.702;2023-03-23T09:26:30;2.30;;;1.30;;
9563;SDS011;4820;50.870;4.702;2023-03-23T09:28:57;2.85;;;1.30;;
9563;SDS011;4820;50.870;4.702;2023-03-23T09:31:24;2.95;;;1.27;;
9563;SDS011;4820;50.870;4.702;2023-03-23T09:33:53;2.35;;;1.38;;
9563;SDS011;4820;50.870;4.702;2023-03-23T09:36:22;2.90;;;1.50;;
9563;SDS011;4820;50.870;4.702;2023-03-23T09:38:48;2.85;;;1.40;;
9563;SDS011;4820;50.870;4.702;2023-03-23T09:47:10;2.70;;;1.10;;
9563;SDS011;4820;50.870;4.702;2023-03-23T09:52:27;3.35;;;1.40;;
9563;SDS011;4820;50.870;4.702;2023-03-23T09:55:17;3.40;;;1.92;;
9563;SDS011;4820;50.870;4.702;2023-03-23T10:03:05;2.17;;;1.13;;
9563;SDS011;4820;50.870;4.702;2023-03-23T10:05:44;2.72;;;1.30;;
9563;SDS011;4820;50.870;4.702;2023-03-23T10:08:13;4.28;;;1.50;;
9563;SDS011;4820;50.870;4.702;2023-03-23T10:16:19;1.85;;;1.13;;
9563;SDS011;4820;50.870;4.702;2023-03-23T10:19:08;4.43;;;1.70;;
9563;SDS011;4820;50.870;4.702;2023-03-23T10:21:59;1.98;;;1.40;;
9563;SDS011;4820;50.870;4.702;2023-03-23T10:24:41;2.25;;;1.38;;
9563;SDS011;4820;50.870;4.702;2023-03-23T10:27:19;3.92;;;1.70;;
9563;SDS011;4820;50.870;4.702;2023-03-23T10:29:57;5.28;;;2.00;;
9563;SDS011;4820;50.870;4.702;2023-03-23T10:32:40;3.22;;;1.80;;
9563;SDS011;4820;50.870;4.702;2023-03-23T10:35:11;2.70;;;1.60;;
9563;SDS011;4820;50.870;4.702;2023-03-23T10:37:50;2.92;;;1.58;;
9563;SDS011;4820;50.870;4.702;2023-03-23T10:40:24;3.13;;;1.55;;
9563;SDS011;4820;50.870;4.702;2023-03-23T10:42:54;4.15;;;1.60;;
9563;SDS011;4820;50.870;4.702;2023-03-23T10:45:27;2.25;;;1.73;;
9563;SDS011;4820;50.870;4.702;2023-03-23T10:48:13;5.13;;;2.05;;
9563;SDS011;4820;50.870;4.702;2023-03-23T10:50:49;3.65;;;2.13;;
9563;SDS011;4820;50.870;4.702;2023-03-23T10:56:34;3.45;;;2.10;;
9563;SDS011;4820;50.870;4.702;2023-03-23T10:59:13;3.42;;;2.10;;
9563;SDS011;4820;50.870;4.702;2023-03-23T11:01:48;6.13;;;2.13;;
9563;SDS011;4820;50.870;4.702;2023-03-23T11:04:17;4.28;;;2.30;;
9563;SDS011;4820;50.870;4.702;2023-03-23T11:06:54;4.30;;;2.70;;
9563;SDS011;4820;50.870;4.702;2023-03-23T11:09:39;3.95;;;2.20;;
9563;SDS011;4820;50.870;4.702;2023-03-23T11:12:17;3.65;;;2.22;;
9563;SDS011;4820;50.870;4.702;2023-03-23T11:14:45;5.22;;;2.50;;
9563;SDS011;4820;50.870;4.702;2023-03-23T11:17:24;3.60;;;2.30;;
9563;SDS011;4820;50.870;4.702;2023-03-23T11:19:52;5.28;;;2.75;;
9563;SDS011;4820;50.870;4.702;2023-03-23T11:22:26;5.53;;;2.90;;
9563;SDS011;4820;50.870;4.702;2023-03-23T11:25:01;5.10;;;3.25;;
9563;SDS011;4820;50.870;4.702;2023-03-23T11:27:29;7.10;;;4.13;;
9563;SDS011;4820;50.870;4.702;2023-03-23T11:33:00;5.95;;;4.35;;
9563;SDS011;4820;50.870;4.702;2023-03-23T11:35:27;8.30;;;4.63;;
9563;SDS011;4820;50.870;4.702;2023-03-23T11:37:56;8.27;;;4.80;;
9563;SDS011;4820;50.870;4.702;2023-03-23T11:40:28;7.10;;;4.65;;
9563;SDS011;4820;50.870;4.702;2023-03-23T11:43:00;8.15;;;4.95;;
9563;SDS011;4820;50.870;4.702;2023-03-23T11:48:28;6.13;;;3.33;;
9563;SDS011;4820;50.870;4.702;2023-03-23T11:51:05;6.07;;;3.88;;
9563;SDS011;4820;50.870;4.702;2023-03-23T11:56:39;6.18;;;2.70;;
9563;SDS011;4820;50.870;4.702;2023-03-23T11:59:11;5.22;;;2.95;;
9563;SDS011;4820;50.870;4.702;2023-03-23T12:01:47;4.13;;;2.40;;
9563;SDS011;4820;50.870;4.702;2023-03-23T12:04:46;5.13;;;2.45;;
9563;SDS011;4820;50.870;4.702;2023-03-23T12:07:40;7.38;;;2.60;;
9563;SDS011;4820;50.870;4.702;2023-03-23T12:23:45;4.22;;;2.10;;
9563;SDS011;4820;50.870;4.702;2023-03-23T12:26:34;7.50;;;2.45;;
9563;SDS011;4820;50.870;4.702;2023-03-23T12:31:54;4.50;;;2.20;;
9563;SDS011;4820;50.870;4.702;2023-03-23T12:45:07;7.97;;;2.20;;
9563;SDS011;4820;50.870;4.702;2023-03-23T12:50:16;5.22;;;2.50;;
9563;SDS011;4820;50.870;4.702;2023-03-23T12:52:56;7.47;;;2.90;;
9563;SDS011;4820;50.870;4.702;2023-03-23T12:55:39;9.73;;;3.00;;
9563;SDS011;4820;50.870;4.702;2023-03-23T12:58:19;7.00;;;2.70;;
9563;SDS011;4820;50.870;4.702;2023-03-23T13:00:51;6.32;;;3.10;;
9563;SDS011;4820;50.870;4.702;2023-03-23T13:06:32;10.45;;;4.75;;
9563;SDS011;4820;50.870;4.702;2023-03-23T13:11:40;7.03;;;3.53;;
9563;SDS011;4820;50.870;4.702;2023-03-23T13:14:15;5.95;;;2.92;;
9563;SDS011;4820;50.870;4.702;2023-03-23T13:22:17;6.65;;;2.97;;
9563;SDS011;4820;50.870;4.702;2023-03-23T13:24:56;7.07;;;2.95;;
9563;SDS011;4820;50.870;4.702;2023-03-23T13:27:25;7.00;;;2.90;;
9563;SDS011;4820;50.870;4.702;2023-03-23T13:29:54;5.30;;;3.15;;
9563;SDS011;4820;50.870;4.702;2023-03-23T13:32:29;5.30;;;3.20;;
9563;SDS011;4820;50.870;4.702;2023-03-23T13:34:56;8.07;;;3.20;;
9563;SDS011;4820;50.870;4.702;2023-03-23T13:37:26;6.22;;;3.03;;
9563;SDS011;4820;50.870;4.702;2023-03-23T13:39:56;6.60;;;3.25;;
9563;SDS011;4820;50.870;4.702;2023-03-23T13:42:27;5.38;;;3.13;;
9563;SDS011;4820;50.870;4.702;2023-03-23T13:45:07;6.47;;;3.10;;
9563;SDS011;4820;50.870;4.702;2023-03-23T13:47:46;6.57;;;2.72;;
9563;SDS011;4820;50.870;4.702;2023-03-23T13:52:57;5.88;;;3.17;;
9563;SDS011;4820;50.870;4.702;2023-03-23T13:58:26;6.75;;;2.90;;
9563;SDS011;4820;50.870;4.702;2023-03-23T14:01:03;6.50;;;2.80;;
9563;SDS011;4820;50.870;4.702;2023-03-23T14:03:42;6.35;;;2.90;;
9563;SDS011;4820;50.870;4.702;2023-03-23T14:06:15;7.75;;;3.10;;
9563;SDS011;4820;50.870;4.702;2023-03-23T14:08:45;9.10;;;3.17;;
9563;SDS011;4820;50.870;4.702;2023-03-23T14:11:16;7.03;;;3.00;;
9563;SDS011;4820;50.870;4.702;2023-03-23T14:16:19;7.28;;;3.20;;
9563;SDS011;4820;50.870;4.702;2023-03-23T14:18:57;5.15;;;2.83;;
9563;SDS011;4820;50.870;4.702;2023-03-23T14:24:02;6.28;;;2.20;;
9563;SDS011;4820;50.870;4.702;2023-03-23T14:26:33;6.03;;;2.50;;
9563;SDS011;4820;50.870;4.702;2023-03-23T14:29:00;6.30;;;2.42;;
9563;SDS011;4820;50.870;4.702;2023-03-23T14:31:26;6.68;;;2.85;;
9563;SDS011;4820;50.870;4.702;2023-03-23T14:33:54;7.93;;;2.47;;
9563;SDS011;4820;50.870;4.702;2023-03-23T14:41:41;6.55;;;2.80;;
9563;SDS011;4820;50.870;4.702;2023-03-23T14:44:10;5.53;;;2.78;;
9563;SDS011;4820;50.870;4.702;2023-03-23T14:46:43;7.05;;;2.85;;
9563;SDS011;4820;50.870;4.702;2023-03-23T14:49:10;7.50;;;2.95;;
9563;SDS011;4820;50.870;4.702;2023-03-23T14:51:51;9.93;;;3.25;;
9563;SDS011;4820;50.870;4.702;2023-03-23T14:54:25;6.03;;;2.50;;
9563;SDS011;4820;50.870;4.702;2023-03-23T14:56:53;8.65;;;3.10;;
9563;SDS011;4820;50.870;4.702;2023-03-23T14:59:19;7.65;;;2.95;;
9563;SDS011;4820;50.870;4.702;2023-03-23T15:01:45;6.47;;;3.03;;
9563;SDS011;4820;50.870;4.702;2023-03-23T15:06:51;5.78;;;2.85;;
9563;SDS011;4820;50.870;4.702;2023-03-23T15:09:24;7.32;;;2.78;;
9563;SDS011;4820;50.870;4.702;2023-03-23T15:11:51;6.13;;;3.15;;
9563;SDS011;4820;50.870;4.702;2023-03-23T15:14:34;8.48;;;2.55;;
9563;SDS011;4820;50.870;4.702;2023-03-23T15:17:16;7.25;;;2.88;;
9563;SDS011;4820;50.870;4.702;2023-03-23T15:19:45;5.20;;;2.80;;
9563;SDS011;4820;50.870;4.702;2023-03-23T15:24:52;6.07;;;2.60;;
9563;SDS011;4820;50.870;4.702;2023-03-23T15:27:42;6.88;;;2.60;;
9563;SDS011;4820;50.870;4.702;2023-03-23T15:32:54;5.80;;;2.63;;
9563;SDS011;4820;50.870;4.702;2023-03-23T15:35:24;6.80;;;2.45;;
9563;SDS011;4820;50.870;4.702;2023-03-23T15:37:52;9.13;;;3.20;;
9563;SDS011;4820;50.870;4.702;2023-03-23T15:40:23;5.95;;;2.50;;
9563;SDS011;4820;50.870;4.702;2023-03-23T15:42:50;5.00;;;2.50;;
9563;SDS011;4820;50.870;4.702;2023-03-23T15:45:51;7.72;;;2.63;;
9563;SDS011;4820;50.870;4.702;2023-03-23T15:48:25;7.32;;;2.80;;
9563;SDS011;4820;50.870;4.702;2023-03-23T15:50:52;9.45;;;2.90;;
9563;SDS011;4820;50.870;4.702;2023-03-23T15:56:06;8.32;;;3.30;;
9563;SDS011;4820;50.870;4.702;2023-03-23T15:58:33;9.25;;;2.70;;
9563;SDS011;4820;50.870;4.702;2023-03-23T16:01:02;6.53;;;2.95;;
9563;SDS011;4820;50.870;4.702;2023-03-23T16:03:42;5.30;;;2.40;;
9563;SDS011;4820;50.870;4.702;2023-03-23T16:06:13;7.10;;;2.80;;
9563;SDS011;4820;50.870;4.702;2023-03-23T16:08:40;7.03;;;2.53;;
9563;SDS011;4820;50.870;4.702;2023-03-23T16:11:08;8.75;;;3.08;;
9563;SDS011;4820;50.870;4.702;2023-03-23T16:13:37;5.25;;;2.45;;
9563;SDS011;4820;50.870;4.702;2023-03-23T16:16:03;8.18;;;3.00;;
9563;SDS011;4820;50.870;4.702;2023-03-23T16:18:30;7.47;;;3.08;;
9563;SDS011;4820;50.870;4.702;2023-03-23T16:20:56;5.65;;;2.95;;
9563;SDS011;4820;50.870;4.702;2023-03-23T16:23:22;6.97;;;2.47;;
9563;SDS011;4820;50.870;4.702;2023-03-23T16:25:48;8.80;;;2.88;;
9563;SDS011;4820;50.870;4.702;2023-03-23T16:28:14;6.15;;;2.65;;
9563;SDS011;4820;50.870;4.702;2023-03-23T16:30:41;6.20;;;2.70;;
9563;SDS011;4820;50.870;4.702;2023-03-23T16:33:08;6.30;;;2.80;;
9563;SDS011;4820;50.870;4.702;2023-03-23T16:35:34;4.88;;;2.45;;
9563;SDS011;4820;50.870;4.702;2023-03-23T16:38:00;5.28;;;2.50;;
9563;SDS011;4820;50.870;4.702;2023-03-23T16:40:27;6.25;;;2.72;;
9563;SDS011;4820;50.870;4.702;2023-03-23T16:42:53;7.25;;;3.00;;
9563;SDS011;4820;50.870;4.702;2023-03-23T16:45:19;4.60;;;2.65;;
9563;SDS011;4820;50.870;4.702;2023-03-23T16:47:45;5.13;;;2.30;;
9563;SDS011;4820;50.870;4.702;2023-03-23T16:50:12;6.18;;;2.50;;
9563;SDS011;4820;50.870;4.702;2023-03-23T16:52:40;5.78;;;2.30;;
9563;SDS011;4820;50.870;4.702;2023-03-23T16:55:08;7.60;;;2.40;;
9563;SDS011;4820;50.870;4.702;2023-03-23T16:57:35;7.22;;;2.42;;
9563;SDS011;4820;50.870;4.702;2023-03-23T17:00:07;7.20;;;2.75;;
9563;SDS011;4820;50.870;4.702;2023-03-23T17:02:37;5.63;;;2.30;;
9563;SDS011;4820;50.870;4.702;2023-03-23T17:05:08;9.90;;;3.30;;
9563;SDS011;4820;50.870;4.702;2023-03-23T17:07:36;4.30;;;2.15;;
9563;SDS011;4820;50.870;4.702;2023-03-23T17:10:02;7.53;;;2.47;;
9563;SDS011;4820;50.870;4.702;2023-03-23T17:12:31;6.97;;;2.63;;
9563;SDS011;4820;50.870;4.702;2023-03-23T17:14:57;6.47;;;2.60;;
9563;SDS011;4820;50.870;4.702;2023-03-23T17:17:22;5.68;;;2.53;;
9563;SDS011;4820;50.870;4.702;2023-03-23T17:19:49;6.70;;;2.20;;
9563;SDS011;4820;50.870;4.702;2023-03-23T17:22:16;6.35;;;2.80;;
9563;SDS011;4820;50.870;4.702;2023-03-23T17:24:42;5.68;;;2.90;;
9563;SDS011;4820;50.870;4.702;2023-03-23T17:27:12;6.35;;;2.70;;
9563;SDS011;4820;50.870;4.702;2023-03-23T17:29:42;7.07;;;2.90;;
9563;SDS011;4820;50.870;4.702;2023-03-23T17:32:08;5.70;;;3.08;;
9563;SDS011;4820;50.870;4.702;2023-03-23T17:34:34;6.07;;;2.40;;
9563;SDS011;4820;50.870;4.702;2023-03-23T17:37:00;9.80;;;3.05;;
9563;SDS011;4820;50.870;4.702;2023-03-23T17:39:35;5.15;;;2.70;;